sensor_id;sensor_type;location;lat;lon;timestamp;temperature;humidity
53286;DHT22;39171;45.550;12.074;2023-02-28T00:00:41;15.60;57.00
53286;DHT22;39171;45.550;12.074;2023-02-28T00:06:44;15.60;57.60
53286;DHT22;39171;45.550;12.074;2023-02-28T00:12:45;15.60;57.00
53286;DHT22;39171;45.550;12.074;2023-02-28T00:18:46;15.50;57.20
53286;DHT22;39171;45.550;12.074;2023-02-28T00:24:48;15.50;57.10
53286;DHT22;39171;45.550;12.074;2023-02-28T00:30:49;15.40;57.40
53286;DHT22;39171;45.550;12.074;2023-02-28T00:36:51;15.40;57.30
53286;DHT22;39171;45.550;12.074;2023-02-28T00:42:52;15.30;57.70
53286;DHT22;39171;45.550;12.074;2023-02-28T00:48:53;15.30;57.30
53286;DHT22;39171;45.550;12.074;2023-02-28T00:54:54;15.30;57.20
53286;DHT22;39171;45.550;12.074;2023-02-28T01:00:56;15.20;57.20
53286;DHT22;39171;45.550;12.074;2023-02-28T01:06:57;15.20;57.60
53286;DHT22;39171;45.550;12.074;2023-02-28T01:12:58;15.20;58.10
53286;DHT22;39171;45.550;12.074;2023-02-28T01:18:59;15.10;57.90
53286;DHT22;39171;45.550;12.074;2023-02-28T01:25:00;15.10;58.10
53286;DHT22;39171;45.550;12.074;2023-02-28T01:31:02;15.10;58.00
53286;DHT22;39171;45.550;12.074;2023-02-28T01:37:03;15.10;57.90
53286;DHT22;39171;45.550;12.074;2023-02-28T01:43:07;15.00;58.00
53286;DHT22;39171;45.550;12.074;2023-02-28T01:49:12;15.00;58.30
53286;DHT22;39171;45.550;12.074;2023-02-28T01:55:14;15.00;58.30
53286;DHT22;39171;45.550;12.074;2023-02-28T02:01:16;14.90;58.00
53286;DHT22;39171;45.550;12.074;2023-02-28T02:07:22;14.80;58.10
53286;DHT22;39171;45.550;12.074;2023-02-28T02:13:27;14.80;58.50
53286;DHT22;39171;45.550;12.074;2023-02-28T02:25:57;14.80;58.50
53286;DHT22;39171;45.550;12.074;2023-02-28T02:44:43;14.70;58.80
53286;DHT22;39171;45.550;12.074;2023-02-28T02:50:46;14.70;58.70
53286;DHT22;39171;45.550;12.074;2023-02-28T02:56:49;14.60;59.20
53286;DHT22;39171;45.550;12.074;2023-02-28T03:02:51;14.60;59.00
53286;DHT22;39171;45.550;12.074;2023-02-28T03:08:53;14.60;59.70
53286;DHT22;39171;45.550;12.074;2023-02-28T03:15:04;14.60;59.10
53286;DHT22;39171;45.550;12.074;2023-02-28T03:21:19;14.60;59.60
53286;DHT22;39171;45.550;12.074;2023-02-28T03:27:26;14.50;59.10
53286;DHT22;39171;45.550;12.074;2023-02-28T03:33:30;14.50;60.30
53286;DHT22;39171;45.550;12.074;2023-02-28T03:39:39;14.50;59.50
53286;DHT22;39171;45.550;12.074;2023-02-28T03:45:40;14.50;59.70
53286;DHT22;39171;45.550;12.074;2023-02-28T03:51:42;14.40;60.10
53286;DHT22;39171;45.550;12.074;2023-02-28T03:57:49;14.40;60.00
53286;DHT22;39171;45.550;12.074;2023-02-28T04:03:51;14.40;60.30
53286;DHT22;39171;45.550;12.074;2023-02-28T04:09:53;14.40;60.00
53286;DHT22;39171;45.550;12.074;2023-02-28T04:15:54;14.30;60.50
53286;DHT22;39171;45.550;12.074;2023-02-28T04:21:55;14.30;60.10
53286;DHT22;39171;45.550;12.074;2023-02-28T04:27:56;14.30;60.10
53286;DHT22;39171;45.550;12.074;2023-02-28T04:33:57;14.30;60.30
53286;DHT22;39171;45.550;12.074;2023-02-28T04:39:59;14.30;60.30
53286;DHT22;39171;45.550;12.074;2023-02-28T04:46:01;14.20;60.60
53286;DHT22;39171;45.550;12.074;2023-02-28T04:52:03;14.20;60.30
53286;DHT22;39171;45.550;12.074;2023-02-28T04:58:04;14.20;60.30
53286;DHT22;39171;45.550;12.074;2023-02-28T05:04:05;14.20;60.40
53286;DHT22;39171;45.550;12.074;2023-02-28T05:10:06;14.20;61.20
53286;DHT22;39171;45.550;12.074;2023-02-28T05:16:08;14.20;60.40
53286;DHT22;39171;45.550;12.074;2023-02-28T05:22:12;14.10;60.40
53286;DHT22;39171;45.550;12.074;2023-02-28T05:28:14;14.10;60.50
53286;DHT22;39171;45.550;12.074;2023-02-28T05:34:15;14.10;60.60
53286;DHT22;39171;45.550;12.074;2023-02-28T05:40:17;14.10;60.00
53286;DHT22;39171;45.550;12.074;2023-02-28T05:46:18;14.00;60.60
53286;DHT22;39171;45.550;12.074;2023-02-28T05:52:19;14.00;60.70
53286;DHT22;39171;45.550;12.074;2023-02-28T05:58:20;13.90;61.20
53286;DHT22;39171;45.550;12.074;2023-02-28T06:04:22;13.90;60.80
53286;DHT22;39171;45.550;12.074;2023-02-28T06:10:23;13.80;60.70
53286;DHT22;39171;45.550;12.074;2023-02-28T06:16:24;13.80;60.50
53286;DHT22;39171;45.550;12.074;2023-02-28T06:22:25;13.70;61.70
53286;DHT22;39171;45.550;12.074;2023-02-28T06:28:26;13.80;62.00
53286;DHT22;39171;45.550;12.074;2023-02-28T06:34:28;14.00;61.50
53286;DHT22;39171;45.550;12.074;2023-02-28T06:40:29;14.20;60.70
53286;DHT22;39171;45.550;12.074;2023-02-28T06:46:34;14.50;60.10
53286;DHT22;39171;45.550;12.074;2023-02-28T06:52:36;14.80;59.50
53286;DHT22;39171;45.550;12.074;2023-02-28T06:58:38;15.00;58.60
53286;DHT22;39171;45.550;12.074;2023-02-28T07:04:40;15.20;58.00
53286;DHT22;39171;45.550;12.074;2023-02-28T07:10:41;15.40;57.70
53286;DHT22;39171;45.550;12.074;2023-02-28T07:16:42;15.50;57.20
53286;DHT22;39171;45.550;12.074;2023-02-28T07:22:44;15.70;56.70
53286;DHT22;39171;45.550;12.074;2023-02-28T07:28:46;15.80;56.10
53286;DHT22;39171;45.550;12.074;2023-02-28T07:34:51;15.90;55.60
53286;DHT22;39171;45.550;12.074;2023-02-28T07:40:52;16.00;55.70
53286;DHT22;39171;45.550;12.074;2023-02-28T07:46:53;16.10;55.50
53286;DHT22;39171;45.550;12.074;2023-02-28T07:52:54;16.20;55.10
53286;DHT22;39171;45.550;12.074;2023-02-28T07:58:55;16.30;54.60
53286;DHT22;39171;45.550;12.074;2023-02-28T08:04:57;16.30;54.60
53286;DHT22;39171;45.550;12.074;2023-02-28T08:10:58;16.40;54.20
53286;DHT22;39171;45.550;12.074;2023-02-28T08:17:00;16.50;53.60
53286;DHT22;39171;45.550;12.074;2023-02-28T08:23:02;16.70;53.70
53286;DHT22;39171;45.550;12.074;2023-02-28T08:29:03;16.70;53.20
53286;DHT22;39171;45.550;12.074;2023-02-28T08:35:04;16.70;53.20
53286;DHT22;39171;45.550;12.074;2023-02-28T08:41:07;16.80;53.40
53286;DHT22;39171;45.550;12.074;2023-02-28T08:47:08;16.80;52.80
53286;DHT22;39171;45.550;12.074;2023-02-28T08:53:09;16.90;52.70
53286;DHT22;39171;45.550;12.074;2023-02-28T08:59:10;17.00;52.40
53286;DHT22;39171;45.550;12.074;2023-02-28T09:05:12;17.10;52.20
53286;DHT22;39171;45.550;12.074;2023-02-28T09:11:13;17.10;52.40
53286;DHT22;39171;45.550;12.074;2023-02-28T09:17:14;17.20;51.70
53286;DHT22;39171;45.550;12.074;2023-02-28T09:23:16;17.20;51.50
53286;DHT22;39171;45.550;12.074;2023-02-28T09:29:17;17.20;51.00
53286;DHT22;39171;45.550;12.074;2023-02-28T09:35:19;17.30;51.20
53286;DHT22;39171;45.550;12.074;2023-02-28T09:41:22;17.30;51.30
53286;DHT22;39171;45.550;12.074;2023-02-28T09:47:27;17.40;50.20
53286;DHT22;39171;45.550;12.074;2023-02-28T09:53:34;17.50;50.90
53286;DHT22;39171;45.550;12.074;2023-02-28T09:59:44;17.50;50.80
53286;DHT22;39171;45.550;12.074;2023-02-28T10:05:49;17.60;50.50
53286;DHT22;39171;45.550;12.074;2023-02-28T10:11:54;17.60;51.00
53286;DHT22;39171;45.550;12.074;2023-02-28T10:18:02;17.70;50.20
53286;DHT22;39171;45.550;12.074;2023-02-28T10:24:11;17.70;50.40
53286;DHT22;39171;45.550;12.074;2023-02-28T10:30:15;17.80;50.00
53286;DHT22;39171;45.550;12.074;2023-02-28T10:36:17;17.80;50.40
53286;DHT22;39171;45.550;12.074;2023-02-28T10:42:23;17.90;49.30
53286;DHT22;39171;45.550;12.074;2023-02-28T10:54:31;18.00;49.40
53286;DHT22;39171;45.550;12.074;2023-02-28T11:00:36;18.00;49.50
53286;DHT22;39171;45.550;12.074;2023-02-28T11:06:37;18.00;49.40
53286;DHT22;39171;45.550;12.074;2023-02-28T11:12:38;18.10;49.40
53286;DHT22;39171;45.550;12.074;2023-02-28T11:18:55;18.20;48.90
53286;DHT22;39171;45.550;12.074;2023-02-28T11:24:57;18.20;49.00
53286;DHT22;39171;45.550;12.074;2023-02-28T11:37:18;18.30;48.60
53286;DHT22;39171;45.550;12.074;2023-02-28T11:49:31;18.30;48.50
53286;DHT22;39171;45.550;12.074;2023-02-28T11:55:37;18.30;48.80
53286;DHT22;39171;45.550;12.074;2023-02-28T12:01:46;18.20;48.90
53286;DHT22;39171;45.550;12.074;2023-02-28T12:20:50;18.20;48.80
53286;DHT22;39171;45.550;12.074;2023-02-28T12:26:53;18.10;48.70
53286;DHT22;39171;45.550;12.074;2023-02-28T12:33:07;18.00;49.10
53286;DHT22;39171;45.550;12.074;2023-02-28T12:51:12;17.90;48.90
53286;DHT22;39171;45.550;12.074;2023-02-28T12:57:19;17.90;49.00
53286;DHT22;39171;45.550;12.074;2023-02-28T13:09:29;18.10;48.50
53286;DHT22;39171;45.550;12.074;2023-02-28T13:15:32;18.20;48.30
53286;DHT22;39171;45.550;12.074;2023-02-28T13:21:43;18.30;48.10
53286;DHT22;39171;45.550;12.074;2023-02-28T13:27:45;18.40;48.10
53286;DHT22;39171;45.550;12.074;2023-02-28T13:46:05;18.60;47.70
53286;DHT22;39171;45.550;12.074;2023-02-28T14:04:56;18.80;47.90
53286;DHT22;39171;45.550;12.074;2023-02-28T14:11:05;18.90;47.90
53286;DHT22;39171;45.550;12.074;2023-02-28T14:17:07;18.90;47.20
53286;DHT22;39171;45.550;12.074;2023-02-28T14:23:12;19.00;47.20
53286;DHT22;39171;45.550;12.074;2023-02-28T14:35:43;19.10;46.20
53286;DHT22;39171;45.550;12.074;2023-02-28T14:41:46;19.10;46.40
53286;DHT22;39171;45.550;12.074;2023-02-28T14:47:51;19.10;46.00
53286;DHT22;39171;45.550;12.074;2023-02-28T14:53:56;19.10;46.20
53286;DHT22;39171;45.550;12.074;2023-02-28T14:59:58;19.00;46.20
53286;DHT22;39171;45.550;12.074;2023-02-28T15:12:01;18.80;46.70
53286;DHT22;39171;45.550;12.074;2023-02-28T15:18:02;18.70;46.90
53286;DHT22;39171;45.550;12.074;2023-02-28T15:24:07;18.60;47.80
53286;DHT22;39171;45.550;12.074;2023-02-28T15:30:15;18.60;48.00
53286;DHT22;39171;45.550;12.074;2023-02-28T15:36:18;18.50;48.10
53286;DHT22;39171;45.550;12.074;2023-02-28T15:42:23;18.50;47.00
53286;DHT22;39171;45.550;12.074;2023-02-28T15:54:32;18.70;48.10
53286;DHT22;39171;45.550;12.074;2023-02-28T16:00:33;18.70;48.20
53286;DHT22;39171;45.550;12.074;2023-02-28T16:06:38;18.70;48.20
53286;DHT22;39171;45.550;12.074;2023-02-28T16:12:40;18.70;48.10
53286;DHT22;39171;45.550;12.074;2023-02-28T16:18:42;18.80;48.40
53286;DHT22;39171;45.550;12.074;2023-02-28T16:24:43;18.80;48.40
53286;DHT22;39171;45.550;12.074;2023-02-28T16:30:44;18.90;48.30
53286;DHT22;39171;45.550;12.074;2023-02-28T16:36:49;19.00;48.10
53286;DHT22;39171;45.550;12.074;2023-02-28T16:42:51;19.00;48.80
53286;DHT22;39171;45.550;12.074;2023-02-28T16:48:53;19.10;48.60
53286;DHT22;39171;45.550;12.074;2023-02-28T16:54:54;19.10;48.60
53286;DHT22;39171;45.550;12.074;2023-02-28T17:00:55;19.10;48.60
53286;DHT22;39171;45.550;12.074;2023-02-28T17:06:56;19.00;48.70
53286;DHT22;39171;45.550;12.074;2023-02-28T17:12:58;18.90;48.70
53286;DHT22;39171;45.550;12.074;2023-02-28T17:19:00;18.80;48.80
53286;DHT22;39171;45.550;12.074;2023-02-28T17:25:02;18.80;48.90
53286;DHT22;39171;45.550;12.074;2023-02-28T17:31:03;18.70;49.00
53286;DHT22;39171;45.550;12.074;2023-02-28T17:37:04;18.60;49.20
53286;DHT22;39171;45.550;12.074;2023-02-28T17:43:05;18.60;49.30
53286;DHT22;39171;45.550;12.074;2023-02-28T17:49:11;18.50;49.40
53286;DHT22;39171;45.550;12.074;2023-02-28T17:55:13;18.40;49.50
53286;DHT22;39171;45.550;12.074;2023-02-28T18:01:14;18.40;49.70
53286;DHT22;39171;45.550;12.074;2023-02-28T18:07:15;18.30;49.80
53286;DHT22;39171;45.550;12.074;2023-02-28T18:13:17;18.20;50.00
53286;DHT22;39171;45.550;12.074;2023-02-28T18:19:18;18.20;50.00
53286;DHT22;39171;45.550;12.074;2023-02-28T18:25:19;18.10;50.20
53286;DHT22;39171;45.550;12.074;2023-02-28T18:31:22;18.00;50.10
53286;DHT22;39171;45.550;12.074;2023-02-28T18:37:24;18.00;50.40
53286;DHT22;39171;45.550;12.074;2023-02-28T18:43:25;17.90;50.50
53286;DHT22;39171;45.550;12.074;2023-02-28T18:49:27;17.90;50.60
53286;DHT22;39171;45.550;12.074;2023-02-28T18:55:29;17.80;50.70
53286;DHT22;39171;45.550;12.074;2023-02-28T19:01:31;17.70;50.60
53286;DHT22;39171;45.550;12.074;2023-02-28T19:07:33;17.70;50.90
53286;DHT22;39171;45.550;12.074;2023-02-28T19:13:35;17.70;51.00
53286;DHT22;39171;45.550;12.074;2023-02-28T19:19:37;17.60;50.90
53286;DHT22;39171;45.550;12.074;2023-02-28T19:25:41;17.50;51.10
53286;DHT22;39171;45.550;12.074;2023-02-28T19:31:42;17.50;51.30
53286;DHT22;39171;45.550;12.074;2023-02-28T19:37:44;17.40;51.40
53286;DHT22;39171;45.550;12.074;2023-02-28T19:43:45;17.40;51.60
53286;DHT22;39171;45.550;12.074;2023-02-28T19:49:46;17.30;51.80
53286;DHT22;39171;45.550;12.074;2023-02-28T19:55:47;17.30;51.70
53286;DHT22;39171;45.550;12.074;2023-02-28T20:01:48;17.20;52.00
53286;DHT22;39171;45.550;12.074;2023-02-28T20:07:50;17.20;52.10
53286;DHT22;39171;45.550;12.074;2023-02-28T20:13:51;17.20;52.10
53286;DHT22;39171;45.550;12.074;2023-02-28T20:19:52;17.10;52.10
53286;DHT22;39171;45.550;12.074;2023-02-28T20:25:57;17.10;52.40
53286;DHT22;39171;45.550;12.074;2023-02-28T20:31:58;17.00;52.70
53286;DHT22;39171;45.550;12.074;2023-02-28T20:37:59;17.00;53.10
53286;DHT22;39171;45.550;12.074;2023-02-28T20:44:00;17.00;52.70
53286;DHT22;39171;45.550;12.074;2023-02-28T20:50:04;16.90;52.50
53286;DHT22;39171;45.550;12.074;2023-02-28T20:56:07;16.90;52.60
53286;DHT22;39171;45.550;12.074;2023-02-28T21:02:08;16.80;52.80
53286;DHT22;39171;45.550;12.074;2023-02-28T21:08:10;16.70;52.90
53286;DHT22;39171;45.550;12.074;2023-02-28T21:14:13;16.70;53.40
53286;DHT22;39171;45.550;12.074;2023-02-28T21:20:15;16.70;53.00
53286;DHT22;39171;45.550;12.074;2023-02-28T21:26:22;16.70;53.00
53286;DHT22;39171;45.550;12.074;2023-02-28T21:32:23;16.60;53.60
53286;DHT22;39171;45.550;12.074;2023-02-28T21:38:25;16.60;53.40
53286;DHT22;39171;45.550;12.074;2023-02-28T21:44:26;16.50;53.50
53286;DHT22;39171;45.550;12.074;2023-02-28T21:50:27;16.50;53.80
53286;DHT22;39171;45.550;12.074;2023-02-28T21:56:30;16.40;53.70
53286;DHT22;39171;45.550;12.074;2023-02-28T22:02:31;16.40;53.60
53286;DHT22;39171;45.550;12.074;2023-02-28T22:08:32;16.30;53.90
53286;DHT22;39171;45.550;12.074;2023-02-28T22:14:33;16.30;53.90
53286;DHT22;39171;45.550;12.074;2023-02-28T22:20:34;16.20;54.10
53286;DHT22;39171;45.550;12.074;2023-02-28T22:26:37;16.20;53.90
53286;DHT22;39171;45.550;12.074;2023-02-28T22:32:38;16.20;54.00
53286;DHT22;39171;45.550;12.074;2023-02-28T22:38:40;16.10;54.00
53286;DHT22;39171;45.550;12.074;2023-02-28T22:44:42;16.10;54.10
53286;DHT22;39171;45.550;12.074;2023-02-28T22:50:43;16.10;54.40
53286;DHT22;39171;45.550;12.074;2023-02-28T22:56:44;16.00;54.10
53286;DHT22;39171;45.550;12.074;2023-02-28T23:02:46;16.00;54.20
53286;DHT22;39171;45.550;12.074;2023-02-28T23:08:48;16.00;54.40
53286;DHT22;39171;45.550;12.074;2023-02-28T23:14:49;15.90;54.60
53286;DHT22;39171;45.550;12.074;2023-02-28T23:20:50;15.90;54.80
53286;DHT22;39171;45.550;12.074;2023-02-28T23:26:52;15.80;54.70
53286;DHT22;39171;45.550;12.074;2023-02-28T23:32:53;15.80;55.10
53286;DHT22;39171;45.550;12.074;2023-02-28T23:38:55;15.70;54.70
53286;DHT22;39171;45.550;12.074;2023-02-28T23:44:56;15.70;54.80
53286;DHT22;39171;45.550;12.074;2023-02-28T23:51:01;15.70;55.50
53286;DHT22;39171;45.550;12.074;2023-02-28T23:57:02;15.70;55.40
